首页
METAR-TAF:

METAR-TAF

机场 :

温尼伯詹姆斯·阿姆斯特朗·理查森国际机场

温尼伯, 曼尼托巴, 加拿大

纬度: 49-54N, 经度: 097-14W, 海拔: 239米

当前天气观测

该预报发布于33分钟前的11:00 UTC
风速13节,风向
温度 -25°C
湿度 69%
气压 1024 hPa
能見度: 24.1公里
天空无云

METAR: CYWG 241100Z 35013KT 15SM SKC M25/M29 A3025 RMK SLP272

时间: 05:33 (11:33 UTC)

预报

该预报发布于5小时和55分钟前的05:38 UTC
预报有效从24日的 06点(UTC)到 25日的 06点(UTC)
风速20节,风向北转西北
能見度: 10公里
散云层高于2000英尺
短暂存在
从 24日的 06点(UTC)到 24日的 09点(UTC)
能見度: 4.8公里
多云层高于2000英尺
小雪, 冰针
从 24日的 0900点(UTC)
风速15节,风向北转西北
能見度: 10公里
少量云层高于2000英尺
从 24日的 1500点(UTC)
风速8节,风向北转西北
能見度: 10公里
天空无云
成为
从 24日的 19点(UTC)到 24日的 21点(UTC)
风速5节,风向西
从 25日的 0000点(UTC)
风速3节,风向多变
能見度: 10公里
天空无云

TAF: CYWG 240538Z 2406/2506 34020KT P6SM SCT020 TEMPO 2406/2409 3SM -SN IC BKN020 FM240900 34015KT P6SM FEW020 FM241500 34008KT P6SM SKC BECMG 2419/2421 27005KT FM250000 VRB03KT P6SM SKC RMK NXT FCST BY 241200Z

超过4000个机场的气象观测和天气预报(METAR&TAF报告)。

可查询的气象台以黄色和红色小点在地图上表示。

将鼠标移到小点上方,可查看气象台名称。

然后点击查看天气观测和预报。

如需切换地图:点击带黑十字的绿色按钮放大地图;点击带横线的绿色按钮缩小地图;或者点击绿色箭头查看邻近地区的地图。


METAR-TAF: